Time;durP1;ratioP1;P1;durP2;ratioP2;P2;SDS_P1;SDS_P2;PMS_P1;PMS_P2;Temp;Humidity;BMP_temperature;BMP_pressure;BME280_temperature;BME280_humidity;BME280_pressure;Samples;Min_cycle;Max_cycle;Signal;HPM_P1;HPM_P2
2023/12/06 00:02:03;;;;;;;1.60;1.50;;;7.60;99.90;;;;;;992195;143;27235;-86
2023/12/06 00:04:30;;;;;;;1.60;1.50;;;7.60;99.90;;;;;;994359;141;27211;-82
2023/12/06 00:06:56;;;;;;;1.60;1.50;;;7.70;99.90;;;;;;990375;140;27400;-85
2023/12/06 00:09:22;;;;;;;1.40;1.40;;;7.70;99.90;;;;;;992645;143;27247;-86
2023/12/06 00:11:49;;;;;;;1.70;1.60;;;7.70;99.90;;;;;;991864;143;27292;-86
2023/12/06 00:14:15;;;;;;;1.63;1.53;;;7.70;99.90;;;;;;995015;141;27275;-84
2023/12/06 00:16:42;;;;;;;2.83;2.57;;;7.70;99.90;;;;;;992649;143;27282;-85
2023/12/06 00:19:09;;;;;;;3.03;2.73;;;7.70;99.90;;;;;;991607;143;27262;-86
2023/12/06 00:21:35;;;;;;;3.90;3.50;;;7.70;99.90;;;;;;990987;143;27232;-86
2023/12/06 00:24:04;;;;;;;3.07;2.77;;;7.70;99.90;;;;;;994946;140;27239;-85
2023/12/06 00:26:28;;;;;;;3.23;2.93;;;7.70;99.90;;;;;;983465;144;27319;-87
2023/12/06 00:28:55;;;;;;;2.70;2.30;;;7.70;99.90;;;;;;983788;146;27312;-85
2023/12/06 00:31:22;;;;;;;2.50;2.30;;;7.70;99.90;;;;;;983789;143;27275;-82
2023/12/06 00:33:48;;;;;;;2.13;2.03;;;7.70;99.90;;;;;;983617;146;27252;-85
2023/12/06 00:36:15;;;;;;;2.30;2.10;;;7.70;99.90;;;;;;983700;144;27879;-84
2023/12/06 00:38:41;;;;;;;3.20;2.30;;;7.70;99.90;;;;;;983449;146;27776;-86
2023/12/06 00:41:08;;;;;;;2.43;2.27;;;7.70;99.90;;;;;;983878;144;27349;-85
2023/12/06 00:43:34;;;;;;;2.30;2.10;;;7.70;99.90;;;;;;983823;144;27315;-82
2023/12/06 00:46:01;;;;;;;2.00;1.90;;;7.70;99.90;;;;;;985689;143;27340;-85
2023/12/06 00:48:28;;;;;;;2.50;1.90;;;7.70;99.90;;;;;;988965;144;27420;-85
2023/12/06 00:50:54;;;;;;;2.27;2.17;;;7.70;99.90;;;;;;981025;143;27336;-86
2023/12/06 00:53:21;;;;;;;2.50;2.30;;;7.70;99.90;;;;;;980380;145;27248;-84
2023/12/06 00:55:47;;;;;;;2.10;2.00;;;7.70;99.90;;;;;;979918;145;27381;-86
2023/12/06 00:58:14;;;;;;;2.20;2.10;;;7.70;99.90;;;;;;980130;145;27744;-85
2023/12/06 01:00:41;;;;;;;2.50;2.30;;;7.70;99.90;;;;;;979568;145;27304;-85
2023/12/06 01:03:07;;;;;;;2.03;1.93;;;7.70;99.90;;;;;;979628;145;27237;-85
2023/12/06 01:05:34;;;;;;;2.30;2.20;;;7.70;99.90;;;;;;979764;145;27785;-83
2023/12/06 01:08:00;;;;;;;2.30;2.20;;;7.70;99.90;;;;;;979238;143;27839;-87
2023/12/06 01:10:27;;;;;;;2.30;2.10;;;7.70;99.90;;;;;;979272;143;27351;-86
2023/12/06 01:12:54;;;;;;;2.53;2.30;;;7.70;99.90;;;;;;980315;145;27249;-86
2023/12/06 01:15:20;;;;;;;2.30;2.10;;;7.70;99.90;;;;;;979831;143;27252;-84
2023/12/06 01:17:47;;;;;;;2.37;2.17;;;7.70;99.90;;;;;;980148;145;27296;-86
2023/12/06 01:20:13;;;;;;;2.27;2.17;;;7.70;99.90;;;;;;980071;146;27312;-86
2023/12/06 01:22:40;;;;;;;2.30;2.20;;;7.70;99.90;;;;;;979649;143;27277;-85
2023/12/06 01:25:06;;;;;;;2.47;2.27;;;7.70;99.90;;;;;;979901;144;27388;-86
2023/12/06 01:27:35;;;;;;;2.23;2.10;;;7.80;99.90;;;;;;979576;144;27421;-84
2023/12/06 01:30:00;;;;;;;2.30;2.10;;;7.80;99.90;;;;;;980114;143;27300;-79
2023/12/06 01:32:26;;;;;;;2.27;2.17;;;7.80;99.90;;;;;;979609;145;27242;-79
2023/12/06 01:34:53;;;;;;;2.53;2.40;;;7.80;99.90;;;;;;979090;146;27237;-80
2023/12/06 01:37:19;;;;;;;2.33;2.13;;;7.80;99.90;;;;;;980062;143;27292;-79
2023/12/06 01:39:46;;;;;;;2.27;2.17;;;7.80;99.90;;;;;;980058;143;27596;-81
2023/12/06 01:42:13;;;;;;;3.00;2.40;;;7.80;99.90;;;;;;979670;145;27934;-79
2023/12/06 01:44:39;;;;;;;2.10;2.00;;;7.80;99.90;;;;;;978570;145;27229;-80
2023/12/06 01:47:06;;;;;;;2.47;2.37;;;7.80;99.90;;;;;;979169;143;27297;-79
2023/12/06 01:49:32;;;;;;;2.00;1.90;;;7.80;99.90;;;;;;974233;147;27316;-80
2023/12/06 01:51:59;;;;;;;3.10;2.50;;;7.80;99.90;;;;;;974336;147;27294;-79
2023/12/06 01:54:26;;;;;;;2.50;2.37;;;7.90;99.90;;;;;;974598;144;27238;-80
2023/12/06 01:56:53;;;;;;;2.57;2.43;;;7.90;99.90;;;;;;974685;144;27277;-80
2023/12/06 01:59:19;;;;;;;2.03;1.93;;;7.90;99.90;;;;;;974545;145;27376;-80
2023/12/06 02:01:45;;;;;;;2.57;2.37;;;7.90;99.90;;;;;;974394;145;27313;-81
2023/12/06 02:04:12;;;;;;;2.37;2.20;;;7.90;99.90;;;;;;974408;147;27241;-81
2023/12/06 02:06:38;;;;;;;2.07;1.97;;;7.90;99.90;;;;;;955105;150;27534;-81
2023/12/06 02:09:05;;;;;;;2.07;1.87;;;7.90;99.90;;;;;;955778;149;27276;-82
2023/12/06 02:11:32;;;;;;;2.17;1.90;;;7.90;99.90;;;;;;954944;147;27316;-82
2023/12/06 02:13:58;;;;;;;1.97;1.87;;;7.90;99.90;;;;;;974236;144;27289;-82
2023/12/06 02:16:25;;;;;;;2.33;2.17;;;7.90;99.90;;;;;;973673;147;27385;-82
2023/12/06 02:18:51;;;;;;;2.10;2.00;;;7.90;99.90;;;;;;974676;145;27309;-81
2023/12/06 02:21:18;;;;;;;2.30;2.10;;;7.90;99.90;;;;;;974758;144;27309;-82
2023/12/06 02:23:45;;;;;;;2.33;2.20;;;7.90;99.90;;;;;;955139;150;27309;-81
2023/12/06 02:26:11;;;;;;;2.30;2.20;;;7.90;99.90;;;;;;974749;145;27579;-81
2023/12/06 02:28:38;;;;;;;2.50;2.30;;;7.90;99.90;;;;;;974120;146;27241;-82
2023/12/06 02:31:04;;;;;;;2.03;1.93;;;7.90;99.90;;;;;;974344;144;27324;-82
2023/12/06 02:33:31;;;;;;;2.20;2.10;;;7.90;99.90;;;;;;953747;150;27303;-81
2023/12/06 02:35:58;;;;;;;2.40;2.30;;;7.90;99.90;;;;;;974846;145;27262;-82
2023/12/06 02:38:24;;;;;;;1.90;1.80;;;7.90;99.90;;;;;;974053;145;27322;-81
2023/12/06 02:40:51;;;;;;;2.57;2.37;;;7.90;99.90;;;;;;974722;147;27416;-82
2023/12/06 02:43:17;;;;;;;2.37;2.23;;;7.90;99.90;;;;;;974594;147;27750;-82
2023/12/06 02:45:44;;;;;;;2.37;2.27;;;7.90;99.90;;;;;;974519;144;27370;-82
2023/12/06 02:48:10;;;;;;;2.30;2.10;;;7.90;99.90;;;;;;976473;144;27329;-81
2023/12/06 02:50:37;;;;;;;2.40;2.20;;;7.90;99.90;;;;;;977373;145;27302;-81
2023/12/06 02:53:04;;;;;;;2.83;2.63;;;7.90;99.90;;;;;;977092;145;27410;-82
2023/12/06 02:55:30;;;;;;;2.60;2.40;;;7.90;99.90;;;;;;976097;145;27331;-81
2023/12/06 02:57:57;;;;;;;3.20;2.90;;;7.90;99.90;;;;;;976806;145;27348;-81
2023/12/06 03:00:23;;;;;;;2.67;2.53;;;7.90;99.90;;;;;;976507;145;27257;-81
2023/12/06 03:02:50;;;;;;;2.90;2.70;;;7.90;99.90;;;;;;976976;145;27305;-81
2023/12/06 03:05:16;;;;;;;2.80;2.60;;;7.90;99.90;;;;;;977874;144;27386;-81
2023/12/06 03:07:43;;;;;;;2.43;2.23;;;7.90;99.90;;;;;;976563;145;27199;-81
2023/12/06 03:10:10;;;;;;;2.53;2.33;;;7.90;99.90;;;;;;977238;144;27282;-81
2023/12/06 03:12:36;;;;;;;2.37;2.17;;;7.90;99.90;;;;;;978076;144;27303;-79
2023/12/06 03:15:03;;;;;;;3.00;2.10;;;7.90;99.90;;;;;;977942;145;27243;-80
2023/12/06 03:17:29;;;;;;;2.67;2.47;;;7.90;99.90;;;;;;978235;145;27429;-80
2023/12/06 03:19:56;;;;;;;2.50;2.30;;;7.90;99.90;;;;;;977892;145;27256;-80
2023/12/06 03:22:23;;;;;;;2.60;2.40;;;7.90;99.90;;;;;;976573;145;27902;-81
2023/12/06 03:24:49;;;;;;;2.73;2.53;;;7.90;99.90;;;;;;976810;143;27341;-79
2023/12/06 03:27:16;;;;;;;2.53;2.33;;;7.90;99.90;;;;;;976528;145;27277;-79
2023/12/06 03:29:42;;;;;;;2.60;2.40;;;7.90;99.90;;;;;;976370;143;27252;-79
2023/12/06 03:32:09;;;;;;;2.20;2.10;;;7.90;99.90;;;;;;976063;145;27369;-80
2023/12/06 03:34:35;;;;;;;3.30;3.10;;;7.90;99.90;;;;;;976209;145;27850;-80
2023/12/06 03:37:03;;;;;;;2.53;2.33;;;7.90;99.90;;;;;;976989;145;27294;-80
2023/12/06 03:39:29;;;;;;;2.70;2.50;;;7.90;99.90;;;;;;976531;145;27322;-79
2023/12/06 03:41:55;;;;;;;2.67;2.47;;;7.90;99.90;;;;;;976831;145;27205;-79
2023/12/06 03:44:22;;;;;;;2.47;2.33;;;8.00;99.90;;;;;;976612;145;27301;-81
2023/12/06 03:46:48;;;;;;;2.93;2.63;;;8.00;99.90;;;;;;976663;143;27312;-79
2023/12/06 03:49:15;;;;;;;2.87;2.67;;;8.00;99.90;;;;;;980015;144;27277;-80
2023/12/06 03:51:42;;;;;;;2.20;2.10;;;8.00;99.90;;;;;;979445;146;27233;-81
2023/12/06 03:54:08;;;;;;;2.50;2.33;;;7.90;99.90;;;;;;979426;144;27312;-79
2023/12/06 03:56:35;;;;;;;2.77;2.57;;;7.90;99.90;;;;;;959935;147;27282;-80
2023/12/06 03:59:01;;;;;;;2.70;2.50;;;7.90;99.90;;;;;;979116;145;27349;-80
2023/12/06 04:01:28;;;;;;;2.80;2.60;;;7.90;99.90;;;;;;979216;143;27802;-81
2023/12/06 04:03:54;;;;;;;2.83;2.63;;;7.90;99.90;;;;;;979765;145;27413;-79
2023/12/06 04:06:21;;;;;;;2.63;2.43;;;7.90;99.90;;;;;;979644;143;27329;-79
2023/12/06 04:08:48;;;;;;;3.10;2.80;;;7.90;99.90;;;;;;978980;145;27349;-80
2023/12/06 04:11:14;;;;;;;3.20;2.90;;;7.90;99.90;;;;;;979933;145;27334;-80
2023/12/06 04:13:41;;;;;;;2.80;2.60;;;7.90;99.90;;;;;;979619;145;27299;-80
2023/12/06 04:16:07;;;;;;;2.73;2.53;;;7.90;99.90;;;;;;979589;146;27323;-79
2023/12/06 04:18:34;;;;;;;3.17;2.90;;;7.90;99.90;;;;;;979410;144;27261;-80
2023/12/06 04:21:01;;;;;;;3.47;3.10;;;7.90;99.90;;;;;;980033;143;27241;-83
2023/12/06 04:23:27;;;;;;;4.23;2.90;;;7.90;99.90;;;;;;979791;146;27315;-82
2023/12/06 04:25:54;;;;;;;3.00;2.80;;;7.90;99.90;;;;;;979768;146;27324;-83
2023/12/06 04:28:20;;;;;;;3.00;2.80;;;7.90;99.90;;;;;;979432;143;27288;-83
2023/12/06 04:30:47;;;;;;;3.40;3.10;;;7.90;99.90;;;;;;979824;143;27264;-83
2023/12/06 04:33:13;;;;;;;3.37;3.17;;;7.90;99.90;;;;;;979399;144;27292;-83
2023/12/06 04:35:41;;;;;;;3.77;3.47;;;7.80;99.90;;;;;;979637;146;27408;-83
2023/12/06 04:38:07;;;;;;;3.30;3.10;;;7.80;99.90;;;;;;979410;146;27333;-83
2023/12/06 04:40:33;;;;;;;3.37;3.07;;;7.80;99.90;;;;;;979205;144;27351;-82
2023/12/06 04:43:00;;;;;;;3.43;3.20;;;7.80;99.90;;;;;;979857;145;27229;-83
2023/12/06 04:45:26;;;;;;;3.63;3.33;;;7.80;99.90;;;;;;960836;147;27668;-81
2023/12/06 04:47:53;;;;;;;3.77;3.47;;;7.80;99.90;;;;;;979959;145;27313;-82
2023/12/06 04:50:20;;;;;;;3.70;3.40;;;7.80;99.90;;;;;;978177;145;27746;-82
2023/12/06 04:52:46;;;;;;;4.07;3.73;;;7.80;99.90;;;;;;977114;145;27300;-82
2023/12/06 04:55:13;;;;;;;4.00;3.60;;;7.80;99.90;;;;;;976988;145;27266;-81
2023/12/06 04:57:39;;;;;;;4.23;3.83;;;7.70;99.90;;;;;;977113;145;27394;-81
2023/12/06 05:00:08;;;;;;;4.37;3.90;;;7.70;99.90;;;;;;977303;145;27206;-82
2023/12/06 05:02:33;;;;;;;4.50;4.10;;;7.70;99.90;;;;;;977104;145;27235;-81
2023/12/06 05:04:59;;;;;;;3.87;3.57;;;7.70;99.90;;;;;;977215;145;27284;-80
2023/12/06 05:07:26;;;;;;;4.40;4.00;;;7.70;99.90;;;;;;977740;143;27293;-81
2023/12/06 05:09:52;;;;;;;4.20;3.90;;;7.70;99.90;;;;;;975836;145;27727;-80
2023/12/06 05:12:19;;;;;;;5.73;4.37;;;7.70;99.90;;;;;;977192;144;27265;-80
2023/12/06 05:14:46;;;;;;;4.20;3.90;;;7.70;99.90;;;;;;976883;144;27210;-81
2023/12/06 05:17:12;;;;;;;5.03;4.53;;;7.70;99.90;;;;;;977377;145;27321;-80
2023/12/06 05:19:39;;;;;;;4.73;4.30;;;7.70;99.90;;;;;;977229;145;27225;-80
2023/12/06 05:22:05;;;;;;;4.60;4.20;;;7.70;99.90;;;;;;976950;144;27219;-80
2023/12/06 05:24:32;;;;;;;6.50;4.40;;;7.70;99.90;;;;;;977410;145;27245;-80
2023/12/06 05:26:58;;;;;;;5.40;4.90;;;7.70;99.90;;;;;;976639;145;27327;-81
2023/12/06 05:29:25;;;;;;;6.97;5.13;;;7.70;99.90;;;;;;976351;145;27230;-81
2023/12/06 05:31:52;;;;;;;4.93;4.43;;;7.70;99.90;;;;;;977021;144;27261;-81
2023/12/06 05:34:19;;;;;;;5.53;4.93;;;7.70;99.90;;;;;;977396;144;27253;-81
2023/12/06 05:36:45;;;;;;;5.13;4.63;;;7.80;99.90;;;;;;977944;145;27318;-80
2023/12/06 05:39:11;;;;;;;4.40;4.07;;;7.80;99.90;;;;;;977687;145;27296;-80
2023/12/06 05:41:38;;;;;;;5.90;5.40;;;7.80;99.90;;;;;;976760;145;27275;-81
2023/12/06 05:44:05;;;;;;;5.53;5.00;;;7.80;99.90;;;;;;977001;145;27233;-81
2023/12/06 05:46:31;;;;;;;6.13;5.53;;;7.80;99.90;;;;;;976843;144;27279;-80
2023/12/06 05:48:58;;;;;;;6.30;5.70;;;7.80;99.90;;;;;;977368;143;27284;-80
2023/12/06 05:51:24;;;;;;;6.40;5.80;;;7.80;99.90;;;;;;979509;143;27653;-80
2023/12/06 05:53:51;;;;;;;5.83;5.33;;;7.80;99.90;;;;;;979917;144;27243;-80
2023/12/06 05:56:17;;;;;;;6.37;5.57;;;7.80;99.90;;;;;;979767;143;27375;-80
2023/12/06 05:58:44;;;;;;;6.60;6.00;;;7.90;99.90;;;;;;979565;145;27373;-80
2023/12/06 06:01:11;;;;;;;6.57;5.87;;;7.90;99.90;;;;;;980037;145;27304;-80
2023/12/06 06:03:37;;;;;;;6.80;6.20;;;7.90;99.90;;;;;;979078;145;27385;-80
2023/12/06 06:06:07;;;;;;;7.43;6.73;;;7.90;99.90;;;;;;980073;145;27261;-80
2023/12/06 06:08:33;;;;;;;8.17;7.23;;;7.90;99.90;;;;;;979360;146;27730;-81
2023/12/06 06:11:00;;;;;;;7.53;6.83;;;7.90;99.90;;;;;;979984;146;27287;-81
2023/12/06 06:13:29;;;;;;;8.13;6.60;;;7.80;99.90;;;;;;980054;144;27307;-85
2023/12/06 06:15:54;;;;;;;7.47;6.77;;;7.80;99.90;;;;;;980019;143;27256;-85
2023/12/06 06:18:19;;;;;;;7.50;6.80;;;7.80;99.90;;;;;;980441;145;27268;-85
2023/12/06 06:20:46;;;;;;;7.57;6.80;;;7.80;99.90;;;;;;979352;145;27311;-85
2023/12/06 06:23:13;;;;;;;8.23;7.43;;;7.80;99.90;;;;;;978917;146;27861;-84
2023/12/06 06:25:39;;;;;;;8.07;7.33;;;7.80;99.90;;;;;;979550;145;27403;-85
2023/12/06 06:28:06;;;;;;;7.70;6.87;;;7.80;99.90;;;;;;979798;145;27329;-85
2023/12/06 06:30:32;;;;;;;7.60;6.90;;;7.80;99.90;;;;;;979031;144;27324;-85
2023/12/06 06:32:59;;;;;;;8.03;7.23;;;7.80;99.90;;;;;;979175;146;27310;-85
2023/12/06 06:35:26;;;;;;;6.90;6.30;;;7.80;99.90;;;;;;979370;146;27332;-85
2023/12/06 06:37:52;;;;;;;7.27;6.67;;;7.90;99.90;;;;;;979619;143;27250;-85
2023/12/06 06:40:22;;;;;;;6.87;6.27;;;7.90;99.90;;;;;;979271;145;27410;-82
2023/12/06 06:42:45;;;;;;;7.20;6.53;;;7.90;99.90;;;;;;979769;143;27739;-78
2023/12/06 06:45:12;;;;;;;7.17;6.47;;;7.90;99.90;;;;;;980180;144;27251;-78
2023/12/06 06:47:38;;;;;;;6.80;6.20;;;7.90;99.90;;;;;;979946;144;27217;-79
2023/12/06 06:50:05;;;;;;;6.60;5.90;;;7.90;99.90;;;;;;979145;143;27331;-79
2023/12/06 06:52:35;;;;;;;7.00;6.13;;;8.00;99.90;;;;;;979234;146;27388;-81
2023/12/06 06:55:01;;;;;;;6.00;5.50;;;7.90;99.90;;;;;;979462;146;27746;-79
2023/12/06 06:57:29;;;;;;;5.37;4.87;;;7.90;99.90;;;;;;979327;146;27336;-81
2023/12/06 06:59:55;;;;;;;5.63;5.13;;;7.90;99.90;;;;;;979111;143;27400;-80
2023/12/06 07:02:21;;;;;;;5.17;4.70;;;7.90;99.90;;;;;;979545;143;27432;-79
2023/12/06 07:04:48;;;;;;;5.03;4.63;;;7.90;99.90;;;;;;959547;146;27291;-81
2023/12/06 07:07:14;;;;;;;5.67;5.17;;;7.90;99.90;;;;;;941433;152;27330;-79
2023/12/06 07:09:41;;;;;;;5.10;4.70;;;7.90;99.90;;;;;;960164;146;27357;-80
2023/12/06 07:12:08;;;;;;;4.90;4.40;;;7.90;99.90;;;;;;960701;148;27311;-78
2023/12/06 07:14:34;;;;;;;4.50;4.10;;;7.90;99.90;;;;;;953348;149;27403;-79
2023/12/06 07:17:01;;;;;;;5.30;4.80;;;7.90;99.90;;;;;;954297;149;27337;-80
2023/12/06 07:19:27;;;;;;;5.13;4.70;;;7.90;99.90;;;;;;955034;148;27342;-80
2023/12/06 07:21:54;;;;;;;4.57;4.17;;;7.90;99.90;;;;;;954063;148;27873;-80
2023/12/06 07:24:21;;;;;;;4.83;4.43;;;7.90;99.90;;;;;;953094;149;27473;-81
2023/12/06 07:26:47;;;;;;;7.70;4.63;;;7.80;99.90;;;;;;954155;149;27349;-82
2023/12/06 07:29:14;;;;;;;4.43;4.03;;;7.80;99.90;;;;;;954336;149;27285;-82
2023/12/06 07:31:41;;;;;;;4.30;3.90;;;7.80;99.90;;;;;;952648;149;27328;-82
2023/12/06 07:34:07;;;;;;;4.63;4.23;;;7.80;99.90;;;;;;954484;149;27309;-82
2023/12/06 07:36:34;;;;;;;4.97;4.43;;;7.80;99.90;;;;;;953093;149;27366;-82
2023/12/06 07:39:00;;;;;;;4.70;4.30;;;7.80;99.90;;;;;;979322;146;27269;-81
2023/12/06 07:41:27;;;;;;;5.23;4.83;;;7.70;99.90;;;;;;978661;146;27842;-82
2023/12/06 07:43:54;;;;;;;5.40;4.90;;;7.70;99.90;;;;;;979718;145;27383;-84
2023/12/06 07:46:21;;;;;;;5.27;4.83;;;7.70;99.90;;;;;;980226;145;27309;-83
2023/12/06 07:48:47;;;;;;;5.70;4.80;;;7.70;99.90;;;;;;979412;143;27388;-85
2023/12/06 07:51:13;;;;;;;6.60;4.87;;;7.70;99.90;;;;;;979994;143;27276;-84
2023/12/06 07:53:40;;;;;;;4.50;4.10;;;7.70;99.90;;;;;;979586;144;27772;-84
2023/12/06 07:56:06;;;;;;;5.40;4.90;;;7.70;99.90;;;;;;979742;143;27239;-84
2023/12/06 07:58:33;;;;;;;5.33;4.83;;;7.60;99.90;;;;;;979476;145;27320;-85
2023/12/06 08:01:00;;;;;;;5.57;5.10;;;7.60;99.90;;;;;;978738;146;27201;-85
2023/12/06 08:03:30;;;;;;;4.73;4.33;;;7.60;99.90;;;;;;979571;145;27217;-84
2023/12/06 08:05:53;;;;;;;5.57;5.03;;;7.60;99.90;;;;;;979165;146;27291;-82
2023/12/06 08:08:19;;;;;;;5.23;4.73;;;7.50;99.90;;;;;;960682;147;27314;-82
2023/12/06 08:10:46;;;;;;;5.33;4.90;;;7.50;99.90;;;;;;978566;143;27300;-84
2023/12/06 08:13:13;;;;;;;6.03;5.53;;;7.50;99.90;;;;;;978464;145;27360;-85
2023/12/06 08:15:39;;;;;;;7.10;5.97;;;7.40;99.90;;;;;;979054;145;27320;-85
2023/12/06 08:18:07;;;;;;;6.10;5.50;;;7.40;99.90;;;;;;979389;143;27265;-84
2023/12/06 08:20:32;;;;;;;5.97;5.40;;;7.40;99.90;;;;;;980017;143;27304;-84
2023/12/06 08:22:59;;;;;;;6.50;5.90;;;7.40;99.90;;;;;;979533;144;27264;-84
2023/12/06 08:25:25;;;;;;;6.20;5.70;;;7.40;99.90;;;;;;978716;145;27297;-84
2023/12/06 08:27:52;;;;;;;6.80;6.20;;;7.30;99.90;;;;;;979165;146;28107;-83
2023/12/06 08:30:19;;;;;;;6.87;6.23;;;7.30;99.90;;;;;;978901;145;27395;-85
2023/12/06 08:32:46;;;;;;;6.57;5.97;;;7.30;99.90;;;;;;943187;151;27297;-85
2023/12/06 08:35:12;;;;;;;6.73;6.07;;;7.30;99.90;;;;;;959696;147;27276;-82
2023/12/06 08:37:38;;;;;;;7.00;6.30;;;7.30;99.90;;;;;;959397;147;27248;-83
2023/12/06 08:40:06;;;;;;;7.10;6.40;;;7.30;99.90;;;;;;979607;144;27364;-82
2023/12/06 08:42:32;;;;;;;7.77;6.97;;;7.30;99.90;;;;;;977663;143;27307;-82
2023/12/06 08:44:58;;;;;;;6.97;6.27;;;7.30;99.90;;;;;;978874;146;27261;-82
2023/12/06 08:47:25;;;;;;;7.60;6.80;;;7.30;99.90;;;;;;980047;145;27366;-82
2023/12/06 08:49:51;;;;;;;7.20;6.50;;;7.30;99.90;;;;;;979168;145;27342;-82
2023/12/06 08:52:18;;;;;;;8.13;7.33;;;7.30;99.90;;;;;;980322;144;27359;-82
2023/12/06 08:54:45;;;;;;;7.57;6.87;;;7.20;99.90;;;;;;979641;145;27382;-85
2023/12/06 08:57:13;;;;;;;7.50;6.80;;;7.20;99.90;;;;;;979933;146;27648;-86
2023/12/06 08:59:38;;;;;;;7.63;6.93;;;7.20;99.90;;;;;;979721;145;27236;-86
2023/12/06 09:02:04;;;;;;;7.53;6.83;;;7.20;99.90;;;;;;980091;144;27252;-84
2023/12/06 09:04:31;;;;;;;7.50;6.80;;;7.20;99.90;;;;;;979822;145;27307;-86
2023/12/06 09:06:58;;;;;;;8.23;7.43;;;7.10;99.90;;;;;;979734;146;27255;-87
2023/12/06 09:09:24;;;;;;;8.00;7.20;;;7.20;99.90;;;;;;980039;145;27245;-86
2023/12/06 09:11:51;;;;;;;8.37;7.57;;;7.10;99.90;;;;;;979884;145;27306;-82
2023/12/06 09:14:17;;;;;;;8.10;7.37;;;7.10;99.90;;;;;;979772;145;27363;-82
2023/12/06 09:16:44;;;;;;;7.87;7.17;;;7.10;99.90;;;;;;979609;145;27357;-85
2023/12/06 09:19:10;;;;;;;7.73;7.03;;;7.10;99.90;;;;;;979541;145;27274;-84
2023/12/06 09:21:45;;;;;;;8.07;7.27;;;7.20;99.90;;;;;;978894;146;27441;-85
2023/12/06 09:24:13;;;;;;;8.43;7.63;;;7.20;99.90;;;;;;960515;149;27443;-84
2023/12/06 09:26:39;;;;;;;8.67;7.87;;;7.20;99.90;;;;;;979455;146;27312;-85
2023/12/06 09:29:08;;;;;;;8.50;7.67;;;7.20;99.90;;;;;;980190;143;27275;-85
2023/12/06 09:34:04;;;;;;;7.90;7.20;;;7.30;99.90;;;;;;986924;142;37367;-85
2023/12/06 09:36:30;;;;;;;7.67;6.97;;;7.30;99.90;;;;;;969396;147;27354;-86
2023/12/06 09:38:57;;;;;;;7.83;7.13;;;7.30;99.90;;;;;;969081;147;27321;-85
2023/12/06 09:41:29;;;;;;;8.50;7.73;;;7.40;99.90;;;;;;968797;147;27318;-85
2023/12/06 09:43:56;;;;;;;7.77;7.07;;;7.40;99.90;;;;;;968074;145;27293;-82
2023/12/06 09:46:22;;;;;;;8.33;7.53;;;7.40;99.90;;;;;;969025;147;27257;-82
2023/12/06 09:48:49;;;;;;;8.70;7.90;;;7.40;99.90;;;;;;969117;145;27306;-82
2023/12/06 09:51:15;;;;;;;9.10;8.13;;;7.40;99.90;;;;;;969653;147;27326;-82
2023/12/06 09:53:42;;;;;;;8.13;7.33;;;7.50;99.90;;;;;;968699;145;27298;-82
2023/12/06 09:56:08;;;;;;;11.37;9.03;;;7.50;99.90;;;;;;968547;145;27279;-82
2023/12/06 09:58:35;;;;;;;8.47;7.60;;;7.50;99.90;;;;;;968626;147;27283;-82
2023/12/06 10:01:02;;;;;;;8.03;7.23;;;7.50;99.90;;;;;;969025;147;27326;-82
2023/12/06 10:03:28;;;;;;;8.43;7.73;;;7.50;99.90;;;;;;969005;146;27280;-82
2023/12/06 10:05:58;;;;;;;8.80;7.97;;;7.50;99.90;;;;;;969036;145;27318;-83
2023/12/06 10:08:24;;;;;;;8.13;7.40;;;7.50;99.90;;;;;;968720;147;27323;-83
2023/12/06 10:11:00;;;;;;;7.80;7.10;;;7.50;99.90;;;;;;968596;147;27352;-83
2023/12/06 10:13:32;;;;;;;8.47;7.67;;;7.50;99.90;;;;;;949435;147;27401;-83
2023/12/06 10:15:59;;;;;;;9.07;8.17;;;7.60;99.90;;;;;;967830;146;27319;-83
2023/12/06 10:18:25;;;;;;;9.27;8.27;;;7.60;99.90;;;;;;968590;147;27409;-83
2023/12/06 10:20:52;;;;;;;8.87;7.97;;;7.60;99.90;;;;;;968874;145;27333;-83
2023/12/06 10:23:19;;;;;;;9.27;8.23;;;7.60;99.90;;;;;;969352;147;27318;-83
2023/12/06 10:25:49;;;;;;;8.37;7.57;;;7.60;99.90;;;;;;949881;147;27291;-83
2023/12/06 10:28:14;;;;;;;9.47;8.47;;;7.60;99.90;;;;;;942863;149;27410;-83
2023/12/06 10:30:41;;;;;;;9.00;8.10;;;7.60;99.90;;;;;;945670;149;27318;-83
2023/12/06 10:33:08;;;;;;;9.77;8.77;;;7.60;99.90;;;;;;949311;147;27387;-83
2023/12/06 10:35:34;;;;;;;8.70;7.90;;;7.60;99.90;;;;;;954253;147;27427;-83
2023/12/06 10:38:01;;;;;;;9.07;8.10;;;7.60;99.90;;;;;;951209;147;27297;-83
2023/12/06 10:40:28;;;;;;;9.87;8.90;;;7.60;99.90;;;;;;952018;147;27297;-82
2023/12/06 10:42:55;;;;;;;8.83;7.93;;;7.60;99.90;;;;;;953905;147;27356;-82
2023/12/06 10:45:21;;;;;;;8.47;7.67;;;7.70;99.90;;;;;;950835;147;27381;-82
2023/12/06 10:47:47;;;;;;;11.83;7.90;;;7.70;99.90;;;;;;951312;148;27664;-83
2023/12/06 10:50:14;;;;;;;9.43;8.43;;;7.70;99.90;;;;;;951594;148;27332;-83
2023/12/06 10:52:40;;;;;;;9.60;8.63;;;7.70;99.90;;;;;;949886;148;27341;-83
2023/12/06 10:55:07;;;;;;;12.10;8.63;;;7.70;99.90;;;;;;952927;148;27268;-80
2023/12/06 10:57:33;;;;;;;8.93;8.10;;;7.70;99.90;;;;;;949067;147;27380;-80
2023/12/06 11:00:00;;;;;;;9.00;8.10;;;7.70;99.90;;;;;;951556;148;27368;-81
2023/12/06 11:02:27;;;;;;;9.13;8.20;;;7.70;99.90;;;;;;952709;147;27361;-80
2023/12/06 11:04:53;;;;;;;11.50;9.50;;;7.70;99.90;;;;;;954507;148;27337;-79
2023/12/06 11:07:44;;;;;;;9.20;8.20;;;7.60;99.90;;;;;;953326;148;27302;-80
2023/12/06 11:10:35;;;;;;;10.47;8.57;;;7.70;99.90;;;;;;950974;148;27312;-80
2023/12/06 11:13:14;;;;;;;10.20;9.17;;;7.70;99.90;;;;;;951430;147;27308;-79
2023/12/06 11:15:59;;;;;;;10.90;9.80;;;7.60;99.90;;;;;;953297;146;27428;-82
2023/12/06 11:18:26;;;;;;;11.67;9.77;;;7.60;99.90;;;;;;952281;146;27360;-81
2023/12/06 11:20:55;;;;;;;12.17;10.50;;;7.70;99.90;;;;;;952330;146;27343;-81
2023/12/06 11:23:21;;;;;;;11.57;10.10;;;7.70;99.90;;;;;;953988;146;27419;-82
2023/12/06 11:25:51;;;;;;;11.47;10.27;;;7.70;99.90;;;;;;953415;146;27320;-81
2023/12/06 11:28:18;;;;;;;11.57;10.33;;;7.70;99.90;;;;;;952146;147;27348;-82
2023/12/06 11:30:50;;;;;;;13.93;10.43;;;7.80;99.90;;;;;;951802;146;27346;-82
2023/12/06 11:33:16;;;;;;;11.27;10.13;;;7.80;99.90;;;;;;951200;146;27360;-82
2023/12/06 11:35:46;;;;;;;12.27;10.83;;;7.80;99.90;;;;;;954329;146;27436;-82
2023/12/06 11:38:13;;;;;;;16.03;13.47;;;7.80;99.90;;;;;;954400;146;27471;-82
2023/12/06 11:40:39;;;;;;;15.73;13.50;;;7.80;99.90;;;;;;955327;146;27292;-81
2023/12/06 11:43:06;;;;;;;14.43;12.00;;;7.80;99.90;;;;;;959609;147;27244;-81
2023/12/06 11:45:32;;;;;;;16.17;12.27;;;7.90;99.90;;;;;;959200;147;27339;-81
2023/12/06 11:47:59;;;;;;;12.27;10.97;;;7.90;99.90;;;;;;960137;147;27359;-81
2023/12/06 11:50:26;;;;;;;10.80;9.70;;;7.90;99.90;;;;;;959311;147;27292;-82
2023/12/06 11:52:52;;;;;;;11.80;10.60;;;7.90;99.90;;;;;;944419;149;27394;-81
2023/12/06 11:55:19;;;;;;;12.07;10.93;;;7.90;99.90;;;;;;944470;149;27294;-82
2023/12/06 11:58:01;;;;;;;10.90;9.80;;;7.90;99.90;;;;;;944921;148;27440;-81
2023/12/06 12:00:30;;;;;;;11.20;9.97;;;7.90;99.90;;;;;;944016;148;27461;-82
2023/12/06 12:02:56;;;;;;;12.10;10.93;;;7.90;99.90;;;;;;944110;149;27683;-82
2023/12/06 12:05:23;;;;;;;11.60;10.37;;;7.90;99.90;;;;;;945371;149;27371;-82
2023/12/06 12:07:50;;;;;;;11.80;10.47;;;7.90;99.90;;;;;;945963;149;27337;-81
2023/12/06 12:10:16;;;;;;;10.63;9.53;;;7.90;99.90;;;;;;945075;147;27429;-81
2023/12/06 12:12:43;;;;;;;10.90;9.80;;;7.90;99.90;;;;;;944349;149;27308;-82
2023/12/06 12:15:09;;;;;;;10.63;9.53;;;7.90;99.90;;;;;;945530;149;27342;-82
2023/12/06 12:17:36;;;;;;;10.73;9.20;;;7.90;99.90;;;;;;944176;149;27280;-81
2023/12/06 12:20:05;;;;;;;11.97;9.77;;;7.90;99.90;;;;;;944598;149;27749;-82
2023/12/06 12:22:29;;;;;;;10.33;9.33;;;8.00;99.90;;;;;;944944;149;27386;-81
2023/12/06 12:24:56;;;;;;;11.57;10.37;;;8.00;99.90;;;;;;944612;149;27336;-83
2023/12/06 12:27:22;;;;;;;11.10;10.00;;;8.00;99.90;;;;;;944689;148;27282;-82
2023/12/06 12:29:49;;;;;;;11.00;9.90;;;8.00;99.90;;;;;;944061;149;27362;-82
2023/12/06 12:32:15;;;;;;;10.40;9.33;;;7.90;99.90;;;;;;944868;149;27795;-82
2023/12/06 12:34:42;;;;;;;11.77;10.57;;;7.90;99.90;;;;;;946149;148;27371;-83
2023/12/06 12:37:09;;;;;;;11.40;10.20;;;7.90;99.90;;;;;;945191;148;27790;-82
2023/12/06 12:39:35;;;;;;;11.23;10.07;;;7.90;99.90;;;;;;945402;149;27277;-82
2023/12/06 12:42:02;;;;;;;10.73;9.60;;;7.90;99.90;;;;;;945157;149;27300;-82
2023/12/06 12:44:28;;;;;;;10.10;8.73;;;7.90;99.90;;;;;;945049;149;27281;-82
2023/12/06 12:46:55;;;;;;;10.00;9.00;;;7.90;99.90;;;;;;945408;149;27433;-82
2023/12/06 12:49:22;;;;;;;9.90;8.93;;;7.90;99.90;;;;;;945531;149;28110;-82
2023/12/06 12:51:48;;;;;;;10.83;9.43;;;7.90;99.90;;;;;;944454;149;27293;-82
2023/12/06 12:54:17;;;;;;;10.10;8.37;;;7.90;99.90;;;;;;944930;149;27295;-82
2023/12/06 12:56:41;;;;;;;10.17;9.00;;;7.90;99.90;;;;;;944660;149;27375;-82